createdAt,value
2023-03-19T00:00:36.142Z,13.20
2023-03-19T00:03:03.194Z,13.20
2023-03-19T00:05:30.437Z,13.20
2023-03-19T00:08:00.577Z,13.20
2023-03-19T00:10:27.728Z,13.10
2023-03-19T00:12:54.822Z,13.10
2023-03-19T00:15:22.221Z,13.10
2023-03-19T00:17:50.820Z,13.10
2023-03-19T00:20:19.152Z,13.10
2023-03-19T00:22:46.736Z,13.10
2023-03-19T00:25:13.883Z,13.10
2023-03-19T00:27:42.266Z,13.10
2023-03-19T00:30:09.939Z,13.10
2023-03-19T00:32:37.362Z,13.10
2023-03-19T00:35:06.576Z,13.10
2023-03-19T00:37:37.449Z,13.10
2023-03-19T00:40:05.421Z,13.10
2023-03-19T00:42:37.373Z,13.10
2023-03-19T00:45:05.412Z,13.00
2023-03-19T00:47:33.584Z,13.00
2023-03-19T00:50:01.036Z,13.00
2023-03-19T00:52:29.724Z,13.00
2023-03-19T00:55:00.158Z,13.00
2023-03-19T00:57:27.384Z,13.00
2023-03-19T00:59:54.508Z,13.00
2023-03-19T01:02:21.532Z,13.00
2023-03-19T01:04:49.511Z,13.00
2023-03-19T01:07:16.871Z,13.00
2023-03-19T01:09:44.122Z,13.00
2023-03-19T01:12:12.804Z,13.00
2023-03-19T01:14:40.590Z,13.00
2023-03-19T01:17:11.158Z,13.00
2023-03-19T01:19:38.617Z,13.00
2023-03-19T01:22:05.689Z,13.00
2023-03-19T01:24:34.868Z,12.90
2023-03-19T01:27:01.885Z,12.90
2023-03-19T01:29:37.390Z,13.00
2023-03-19T01:32:16.794Z,13.00
2023-03-19T01:34:59.705Z,12.90
2023-03-19T01:37:26.703Z,13.00
2023-03-19T01:39:54.882Z,13.00
2023-03-19T01:42:22.348Z,12.90
2023-03-19T01:44:56.971Z,12.90
2023-03-19T01:47:36.898Z,12.90
2023-03-19T01:50:34.642Z,12.90
2023-03-19T01:53:22.641Z,13.00
2023-03-19T01:56:03.092Z,13.00
2023-03-19T01:58:57.765Z,13.00
2023-03-19T02:02:33.218Z,12.90
2023-03-19T02:05:15.796Z,12.90
2023-03-19T02:07:47.345Z,13.00
2023-03-19T02:10:17.833Z,13.00
2023-03-19T02:12:47.071Z,13.00
2023-03-19T02:15:14.986Z,13.00
2023-03-19T02:17:42.877Z,13.00
2023-03-19T02:20:50.096Z,13.00
2023-03-19T02:23:55.415Z,13.00
2023-03-19T02:26:39.751Z,13.00
2023-03-19T02:29:07.594Z,13.00
2023-03-19T02:31:37.214Z,13.00
2023-03-19T02:34:07.092Z,13.00
2023-03-19T02:36:44.097Z,13.00
2023-03-19T02:39:23.693Z,13.00
2023-03-19T02:41:53.437Z,12.90
2023-03-19T02:44:22.558Z,12.90
2023-03-19T02:46:51.833Z,12.90
2023-03-19T02:49:20.838Z,13.00
2023-03-19T02:51:51.755Z,12.90
2023-03-19T02:54:19.790Z,13.00
2023-03-19T02:56:47.805Z,12.90
2023-03-19T02:59:15.045Z,13.00
2023-03-19T03:01:42.186Z,13.00
2023-03-19T03:04:09.292Z,13.00
2023-03-19T03:06:36.376Z,13.00
2023-03-19T03:09:03.901Z,13.00
2023-03-19T03:11:31.170Z,13.00
2023-03-19T03:14:01.200Z,13.00
2023-03-19T03:16:28.224Z,13.00
2023-03-19T03:18:55.405Z,13.00
2023-03-19T03:21:22.985Z,13.00
2023-03-19T03:23:50.191Z,12.90
2023-03-19T03:26:17.398Z,12.90
2023-03-19T03:28:44.558Z,12.80
2023-03-19T03:31:12.104Z,12.80
2023-03-19T03:33:39.977Z,12.70
2023-03-19T03:36:09.860Z,12.70
2023-03-19T03:38:36.848Z,12.70
2023-03-19T03:41:05.032Z,12.70
2023-03-19T03:43:35.748Z,12.60
2023-03-19T03:46:28.794Z,12.60
2023-03-19T03:48:56.800Z,12.60
2023-03-19T03:51:24.629Z,12.60
2023-03-19T03:53:51.640Z,12.50
2023-03-19T03:56:18.687Z,12.50
2023-03-19T03:58:46.066Z,12.50
2023-03-19T04:01:17.185Z,12.40
2023-03-19T04:03:47.558Z,12.40
2023-03-19T04:06:17.563Z,12.40
2023-03-19T04:08:46.113Z,12.30
2023-03-19T04:11:13.404Z,12.30
2023-03-19T04:13:41.601Z,12.30
2023-03-19T04:16:10.204Z,12.30
2023-03-19T04:18:39.390Z,12.30
2023-03-19T04:21:07.607Z,12.30
2023-03-19T04:23:35.234Z,12.30
2023-03-19T04:26:09.239Z,12.30
2023-03-19T04:28:37.566Z,12.30
2023-03-19T04:31:07.282Z,12.20
2023-03-19T04:33:37.399Z,12.20
2023-03-19T04:36:04.829Z,12.20
2023-03-19T04:38:32.275Z,12.20
2023-03-19T04:40:59.684Z,12.30
2023-03-19T04:43:27.456Z,12.30
2023-03-19T04:45:55.007Z,12.30
2023-03-19T04:48:23.179Z,12.30
2023-03-19T04:50:53.443Z,12.30
2023-03-19T04:53:20.899Z,12.30
2023-03-19T04:55:48.802Z,12.30
2023-03-19T04:58:23.220Z,12.30
2023-03-19T05:01:02.127Z,12.30
2023-03-19T05:03:50.295Z,12.40
2023-03-19T05:06:20.088Z,12.40
2023-03-19T05:08:47.392Z,12.40
2023-03-19T05:11:14.832Z,12.40
2023-03-19T05:13:56.611Z,12.40
2023-03-19T05:16:23.674Z,12.40
2023-03-19T05:18:50.883Z,12.40
2023-03-19T05:21:19.963Z,12.40
2023-03-19T05:23:52.400Z,12.40
2023-03-19T05:26:20.767Z,12.40
2023-03-19T05:29:06.342Z,12.30
2023-03-19T05:31:42.028Z,12.30
2023-03-19T05:34:09.710Z,12.30
2023-03-19T05:36:37.211Z,12.30
2023-03-19T05:39:14.444Z,12.20
2023-03-19T05:41:46.940Z,12.30
2023-03-19T05:44:18.756Z,12.30
2023-03-19T05:47:15.150Z,12.30
2023-03-19T05:49:47.959Z,12.30
2023-03-19T05:52:16.717Z,12.20
2023-03-19T05:54:44.297Z,12.20
2023-03-19T05:57:24.657Z,12.20
2023-03-19T06:00:18.780Z,12.20
2023-03-19T06:02:49.641Z,12.30
2023-03-19T06:05:32.988Z,12.20
2023-03-19T06:08:35.463Z,12.30
2023-03-19T06:11:14.044Z,12.30
2023-03-19T06:13:43.544Z,12.40
2023-03-19T06:16:14.953Z,12.40
2023-03-19T06:18:48.327Z,12.40
2023-03-19T06:21:16.603Z,12.50
2023-03-19T06:23:44.549Z,12.50
2023-03-19T06:26:17.675Z,12.50
2023-03-19T06:28:52.867Z,12.50
2023-03-19T06:31:20.682Z,12.60
2023-03-19T06:33:55.366Z,12.70
2023-03-19T06:36:26.870Z,12.70
2023-03-19T06:38:54.884Z,12.80
2023-03-19T06:41:22.873Z,13.00
2023-03-19T06:43:50.685Z,13.10
2023-03-19T06:46:17.796Z,13.20
2023-03-19T06:48:44.970Z,13.40
2023-03-19T06:51:11.978Z,13.60
2023-03-19T06:53:39.874Z,13.90
2023-03-19T06:56:07.144Z,14.20
2023-03-19T06:58:35.420Z,14.60
2023-03-19T07:01:03.096Z,15.00
2023-03-19T07:03:30.769Z,15.50
2023-03-19T07:05:57.930Z,16.00
2023-03-19T07:08:29.797Z,16.60
2023-03-19T07:10:57.355Z,17.10
2023-03-19T07:13:25.830Z,17.70
2023-03-19T07:15:53.182Z,18.10
2023-03-19T07:18:20.281Z,18.50
2023-03-19T07:20:47.618Z,18.80
2023-03-19T07:23:14.702Z,19.10
2023-03-19T07:25:44.282Z,19.20
2023-03-19T07:28:11.943Z,19.30
2023-03-19T07:30:39.096Z,19.30
2023-03-19T07:33:07.495Z,19.20
2023-03-19T07:35:35.039Z,19.00
2023-03-19T07:38:02.835Z,18.80
2023-03-19T07:40:30.254Z,18.50
2023-03-19T07:42:58.188Z,18.30
2023-03-19T07:45:25.629Z,18.10
2023-03-19T07:47:53.133Z,17.90
2023-03-19T07:50:20.516Z,17.80
2023-03-19T07:52:48.418Z,17.70
2023-03-19T07:55:15.775Z,17.60
2023-03-19T07:57:42.861Z,17.60
2023-03-19T08:00:10.798Z,17.60
2023-03-19T08:02:43.649Z,17.60
2023-03-19T08:05:12.404Z,17.70
2023-03-19T08:07:39.482Z,17.80
2023-03-19T08:10:07.411Z,17.90
2023-03-19T08:12:39.968Z,17.90
2023-03-19T08:15:10.140Z,18.00
2023-03-19T08:17:40.874Z,18.00
2023-03-19T08:20:11.888Z,18.00
2023-03-19T08:22:40.587Z,18.10
2023-03-19T08:25:08.130Z,18.20
2023-03-19T08:27:35.804Z,18.40
2023-03-19T08:30:04.628Z,18.60
2023-03-19T08:32:32.195Z,18.80
2023-03-19T08:34:59.542Z,19.00
2023-03-19T08:37:26.878Z,19.20
2023-03-19T08:39:54.020Z,19.40
2023-03-19T08:42:21.644Z,19.50
2023-03-19T08:44:49.221Z,19.60
2023-03-19T08:47:17.178Z,19.60
2023-03-19T08:49:44.243Z,19.70
2023-03-19T08:52:11.777Z,19.80
2023-03-19T08:54:38.777Z,20.00
2023-03-19T08:57:06.259Z,20.10
2023-03-19T08:59:34.283Z,20.10
2023-03-19T09:02:02.007Z,20.20
2023-03-19T09:04:29.530Z,20.30
2023-03-19T09:06:56.538Z,20.40
2023-03-19T09:09:24.920Z,20.50
2023-03-19T09:11:52.132Z,20.60
2023-03-19T09:14:20.685Z,20.70
2023-03-19T09:16:48.544Z,20.80
2023-03-19T09:19:15.997Z,20.90
2023-03-19T09:21:43.071Z,20.90
2023-03-19T09:24:10.200Z,21.00
2023-03-19T09:26:37.989Z,21.10
2023-03-19T09:29:05.098Z,21.10
2023-03-19T09:31:32.211Z,21.10
2023-03-19T09:33:59.338Z,21.20
2023-03-19T09:36:26.702Z,21.20
2023-03-19T09:38:56.552Z,21.30
2023-03-19T09:41:40.937Z,21.40
2023-03-19T09:44:21.611Z,21.40
2023-03-19T09:46:58.958Z,21.50
2023-03-19T09:49:38.663Z,21.50
2023-03-19T09:52:14.980Z,21.60
2023-03-19T09:54:48.392Z,21.70
2023-03-19T09:57:17.533Z,21.70
2023-03-19T09:59:45.627Z,21.80
2023-03-19T10:02:40.362Z,21.90
2023-03-19T10:05:31.271Z,21.90
2023-03-19T10:08:17.640Z,22.00
2023-03-19T10:11:08.505Z,22.10
2023-03-19T10:13:39.824Z,22.00
2023-03-19T10:16:17.126Z,22.10
2023-03-19T10:18:50.791Z,22.10
2023-03-19T10:21:42.648Z,22.10
2023-03-19T10:24:19.067Z,22.20
2023-03-19T10:26:46.258Z,22.30
2023-03-19T10:29:20.766Z,22.40
2023-03-19T10:31:58.318Z,22.50
2023-03-19T10:34:33.451Z,22.50
2023-03-19T10:37:20.856Z,22.50
2023-03-19T10:39:50.717Z,22.40
2023-03-19T10:42:45.015Z,22.30
2023-03-19T10:45:32.087Z,22.30
2023-03-19T10:48:01.344Z,22.20
2023-03-19T10:50:55.414Z,22.10
2023-03-19T10:53:32.632Z,22.00
2023-03-19T10:56:27.121Z,21.90
2023-03-19T10:59:06.282Z,21.80
2023-03-19T11:01:40.790Z,21.70
2023-03-19T11:04:20.969Z,21.70
2023-03-19T11:06:50.391Z,21.60
2023-03-19T11:09:42.814Z,21.60
2023-03-19T11:12:28.858Z,21.50
2023-03-19T11:14:58.910Z,21.50
2023-03-19T11:17:36.270Z,21.50
2023-03-19T11:20:33.619Z,21.50
2023-03-19T11:23:04.186Z,21.50
2023-03-19T11:25:43.885Z,21.50
2023-03-19T11:28:15.749Z,21.50
2023-03-19T11:31:15.464Z,21.60
2023-03-19T11:34:04.467Z,21.70
2023-03-19T11:36:42.710Z,21.70
2023-03-19T11:39:38.182Z,21.80
2023-03-19T11:42:36.195Z,21.90
2023-03-19T11:45:49.467Z,21.90
2023-03-19T11:48:23.161Z,22.00
2023-03-19T11:51:12.410Z,22.00
2023-03-19T11:53:52.773Z,22.00
2023-03-19T11:56:40.276Z,22.00
2023-03-19T11:59:33.506Z,22.00
2023-03-19T12:02:18.027Z,22.00
2023-03-19T12:05:10.572Z,22.00
2023-03-19T12:07:50.874Z,22.00
2023-03-19T12:10:38.834Z,22.00
2023-03-19T12:13:30.663Z,22.00
2023-03-19T12:16:00.958Z,22.00
2023-03-19T12:18:30.998Z,21.90
2023-03-19T12:21:11.891Z,21.90
2023-03-19T12:24:24.548Z,21.90
2023-03-19T12:27:26.051Z,21.90
2023-03-19T12:30:18.525Z,21.90
2023-03-19T12:32:58.243Z,21.90
2023-03-19T12:35:34.328Z,21.90
2023-03-19T12:38:27.868Z,21.80
2023-03-19T12:41:05.167Z,21.80
2023-03-19T12:43:40.234Z,21.80
2023-03-19T12:46:09.735Z,21.80
2023-03-19T12:48:45.538Z,21.80
2023-03-19T12:51:17.866Z,21.80
2023-03-19T12:53:54.371Z,21.90
2023-03-19T12:56:32.593Z,21.90
2023-03-19T12:59:12.109Z,21.80
2023-03-19T13:01:52.047Z,21.80
2023-03-19T13:04:32.907Z,21.70
2023-03-19T13:07:43.130Z,21.70
2023-03-19T13:10:18.834Z,21.70
2023-03-19T13:12:50.006Z,21.70
2023-03-19T13:15:24.593Z,21.60
2023-03-19T13:18:19.618Z,21.70
2023-03-19T13:21:01.638Z,21.70
2023-03-19T13:23:35.035Z,21.70
2023-03-19T13:26:06.834Z,21.70
2023-03-19T13:28:36.983Z,21.70
2023-03-19T13:31:07.196Z,21.70
2023-03-19T13:33:38.698Z,21.70
2023-03-19T13:36:09.110Z,21.70
2023-03-19T13:38:50.703Z,21.70
2023-03-19T13:41:33.214Z,21.70
2023-03-19T13:44:21.556Z,21.60
2023-03-19T13:46:50.062Z,21.50
2023-03-19T13:49:46.275Z,21.40
2023-03-19T13:52:17.129Z,21.30
2023-03-19T13:54:48.717Z,21.20
2023-03-19T13:57:18.384Z,21.10
2023-03-19T13:59:50.759Z,21.00
2023-03-19T14:02:26.594Z,21.00
2023-03-19T14:05:04.304Z,20.90
2023-03-19T14:07:42.369Z,20.80
2023-03-19T14:10:27.259Z,20.80
2023-03-19T14:13:17.377Z,20.70
2023-03-19T14:15:51.032Z,20.60
2023-03-19T14:18:22.151Z,20.60
2023-03-19T14:21:07.103Z,20.50
2023-03-19T14:23:44.087Z,20.50
2023-03-19T14:26:20.044Z,20.50
2023-03-19T14:28:55.141Z,20.40
2023-03-19T14:31:42.888Z,20.40
2023-03-19T14:34:26.367Z,20.40
2023-03-19T14:37:03.630Z,20.40
2023-03-19T14:39:34.552Z,20.40
2023-03-19T14:42:22.967Z,20.40
2023-03-19T14:45:28.347Z,20.40
2023-03-19T14:48:07.619Z,20.40
2023-03-19T14:50:53.096Z,20.40
2023-03-19T14:53:43.896Z,20.40
2023-03-19T14:56:25.416Z,20.50
2023-03-19T14:58:57.707Z,20.40
2023-03-19T15:01:29.533Z,20.40
2023-03-19T15:04:03.159Z,20.30
2023-03-19T15:06:42.373Z,20.30
2023-03-19T15:09:26.954Z,20.30
2023-03-19T15:12:31.466Z,20.30
2023-03-19T15:15:02.526Z,20.20
2023-03-19T15:17:31.402Z,20.20
2023-03-19T15:20:03.746Z,20.20
2023-03-19T15:22:33.659Z,20.10
2023-03-19T15:25:10.205Z,20.10
2023-03-19T15:27:37.531Z,20.10
2023-03-19T15:30:22.256Z,20.10
2023-03-19T15:33:04.326Z,20.10
2023-03-19T15:35:36.535Z,20.00
2023-03-19T15:38:10.559Z,20.00
2023-03-19T15:40:38.787Z,20.00
2023-03-19T15:43:09.135Z,20.00
2023-03-19T15:45:36.397Z,19.90
2023-03-19T15:48:15.481Z,19.90
2023-03-19T15:50:47.016Z,19.90
2023-03-19T15:53:23.089Z,19.80
2023-03-19T15:55:52.757Z,19.80
2023-03-19T15:58:25.919Z,19.70
2023-03-19T16:00:54.971Z,19.70
2023-03-19T16:03:38.973Z,19.60
2023-03-19T16:06:27.751Z,19.50
2023-03-19T16:08:57.002Z,19.40
2023-03-19T16:11:36.738Z,19.30
2023-03-19T16:14:25.091Z,19.10
2023-03-19T16:16:59.907Z,19.00
2023-03-19T16:19:52.553Z,18.90
2023-03-19T16:22:37.798Z,18.80
2023-03-19T16:25:12.031Z,18.80
2023-03-19T16:27:40.524Z,18.70
2023-03-19T16:30:27.623Z,18.60
2023-03-19T16:33:02.701Z,18.50
2023-03-19T16:35:31.852Z,18.40
2023-03-19T16:38:11.062Z,18.30
2023-03-19T16:40:48.988Z,18.20
2023-03-19T16:43:19.172Z,18.10
2023-03-19T16:45:52.102Z,18.10
2023-03-19T16:48:21.050Z,18.00
2023-03-19T16:50:48.682Z,18.00
2023-03-19T16:53:28.120Z,17.90
2023-03-19T16:55:57.093Z,17.80
2023-03-19T16:58:34.880Z,17.80
2023-03-19T17:01:03.841Z,17.70
2023-03-19T17:03:32.342Z,17.70
2023-03-19T17:06:00.603Z,17.60
2023-03-19T17:08:28.807Z,17.60
2023-03-19T17:10:56.429Z,17.50
2023-03-19T17:13:28.634Z,17.50
2023-03-19T17:16:02.916Z,17.40
2023-03-19T17:18:33.604Z,17.40
2023-03-19T17:21:10.141Z,17.40
2023-03-19T17:23:43.262Z,17.30
2023-03-19T17:26:19.718Z,17.30
2023-03-19T17:28:47.778Z,17.30
2023-03-19T17:31:41.336Z,17.20
2023-03-19T17:34:16.247Z,17.20
2023-03-19T17:36:47.699Z,17.20
2023-03-19T17:39:14.643Z,17.20
2023-03-19T17:41:41.559Z,17.20
2023-03-19T17:44:08.992Z,17.10
2023-03-19T17:46:42.136Z,17.20
2023-03-19T17:49:19.621Z,17.10
2023-03-19T17:51:47.158Z,17.10
2023-03-19T17:54:14.955Z,17.10
2023-03-19T17:56:43.478Z,17.10
2023-03-19T17:59:12.047Z,17.10
2023-03-19T18:01:43.683Z,17.10
2023-03-19T18:04:14.732Z,17.10
2023-03-19T18:06:46.454Z,17.00
2023-03-19T18:09:22.331Z,17.00
2023-03-19T18:11:49.983Z,17.00
2023-03-19T18:14:17.254Z,17.00
2023-03-19T18:16:45.084Z,17.00
2023-03-19T18:19:21.138Z,17.00
2023-03-19T18:21:48.283Z,17.00
2023-03-19T18:24:15.403Z,17.00
2023-03-19T18:26:42.612Z,17.00
2023-03-19T18:29:11.297Z,17.00
2023-03-19T18:31:38.877Z,17.00
2023-03-19T18:34:12.129Z,17.00
2023-03-19T18:36:40.700Z,17.00
2023-03-19T18:39:13.953Z,17.00
2023-03-19T18:41:41.881Z,17.00
2023-03-19T18:44:10.384Z,17.00
2023-03-19T18:46:39.244Z,17.00
2023-03-19T18:49:22.844Z,17.00
2023-03-19T18:52:02.183Z,17.00
2023-03-19T18:54:31.170Z,17.00
2023-03-19T18:57:01.172Z,17.00
2023-03-19T18:59:32.703Z,17.00
2023-03-19T19:02:31.738Z,17.00
2023-03-19T19:04:58.700Z,16.90
2023-03-19T19:07:25.755Z,17.00
2023-03-19T19:09:52.970Z,16.90
2023-03-19T19:12:20.529Z,16.90
2023-03-19T19:14:47.996Z,16.90
2023-03-19T19:17:17.807Z,16.90
2023-03-19T19:19:45.472Z,16.90
2023-03-19T19:22:17.535Z,16.90
2023-03-19T19:24:45.128Z,16.90
2023-03-19T19:27:23.033Z,16.90
2023-03-19T19:29:50.556Z,16.90
2023-03-19T19:32:25.079Z,16.80
2023-03-19T19:34:52.543Z,16.80
2023-03-19T19:37:23.828Z,16.80
2023-03-19T19:39:52.487Z,16.80
2023-03-19T19:42:22.406Z,16.70
2023-03-19T19:44:56.082Z,16.70
2023-03-19T19:47:24.790Z,16.70
2023-03-19T19:49:51.861Z,16.70
2023-03-19T19:52:20.276Z,16.70
2023-03-19T19:54:47.469Z,16.60
2023-03-19T19:57:24.733Z,16.70
2023-03-19T19:59:53.229Z,16.70
2023-03-19T20:02:23.956Z,16.70
2023-03-19T20:04:51.436Z,16.60
2023-03-19T20:07:20.099Z,16.60
2023-03-19T20:09:48.451Z,16.60
2023-03-19T20:12:22.716Z,16.60
2023-03-19T20:14:52.734Z,16.60
2023-03-19T20:17:22.503Z,16.50
2023-03-19T20:19:50.093Z,16.60
2023-03-19T20:22:17.522Z,16.60
2023-03-19T20:24:45.160Z,16.60
2023-03-19T20:27:20.768Z,16.60
2023-03-19T20:29:51.848Z,16.50
2023-03-19T20:32:37.026Z,16.50
2023-03-19T20:35:14.133Z,16.50
2023-03-19T20:37:41.158Z,16.50
2023-03-19T20:40:08.388Z,16.50
2023-03-19T20:42:35.610Z,16.50
2023-03-19T20:45:02.958Z,16.50
2023-03-19T20:47:33.131Z,16.40
2023-03-19T20:50:00.531Z,16.40
2023-03-19T20:52:27.522Z,16.40
2023-03-19T20:54:55.204Z,16.40
2023-03-19T20:57:29.426Z,16.40
2023-03-19T20:59:57.420Z,16.40
2023-03-19T21:02:28.480Z,16.30
2023-03-19T21:04:55.666Z,16.30
2023-03-19T21:07:29.100Z,16.20
2023-03-19T21:09:58.870Z,16.20
2023-03-19T21:12:33.665Z,16.20
2023-03-19T21:15:01.526Z,16.10
2023-03-19T21:17:29.383Z,16.10
2023-03-19T21:19:56.960Z,16.00
2023-03-19T21:22:29.895Z,16.00
2023-03-19T21:25:05.831Z,16.00
2023-03-19T21:27:36.642Z,15.90
2023-03-19T21:30:06.799Z,15.90
2023-03-19T21:32:34.336Z,15.80
2023-03-19T21:35:01.611Z,15.80
2023-03-19T21:37:28.639Z,15.80
2023-03-19T21:39:55.891Z,15.70
2023-03-19T21:42:23.473Z,15.70
2023-03-19T21:44:57.380Z,15.70
2023-03-19T21:47:25.853Z,15.70
2023-03-19T21:49:52.907Z,15.70
2023-03-19T21:52:22.037Z,15.70
2023-03-19T21:54:49.199Z,15.70
2023-03-19T21:57:17.362Z,15.70
2023-03-19T21:59:46.062Z,15.70
2023-03-19T22:02:22.514Z,15.80
2023-03-19T22:04:51.208Z,15.70
2023-03-19T22:07:18.547Z,15.70
2023-03-19T22:09:45.528Z,15.80
2023-03-19T22:12:24.992Z,15.70
2023-03-19T22:14:52.516Z,15.70
2023-03-19T22:17:24.059Z,15.70
2023-03-19T22:19:51.568Z,15.70
2023-03-19T22:22:18.584Z,15.70
2023-03-19T22:24:45.654Z,15.70
2023-03-19T22:27:17.534Z,15.70
2023-03-19T22:29:47.984Z,15.70
2023-03-19T22:32:19.316Z,15.70
2023-03-19T22:34:47.055Z,15.70
2023-03-19T22:37:29.450Z,15.70
2023-03-19T22:39:57.091Z,15.70
2023-03-19T22:42:27.271Z,15.60
2023-03-19T22:44:54.890Z,15.60
2023-03-19T22:47:24.917Z,15.60
2023-03-19T22:49:52.421Z,15.60
2023-03-19T22:52:21.390Z,15.60
2023-03-19T22:54:48.576Z,15.60
2023-03-19T22:57:15.846Z,15.50
2023-03-19T22:59:43.307Z,15.50
2023-03-19T23:02:14.635Z,15.50
2023-03-19T23:04:41.784Z,15.50
2023-03-19T23:07:14.520Z,15.50
2023-03-19T23:09:41.961Z,15.50
2023-03-19T23:14:36.969Z,15.50
2023-03-19T23:17:14.571Z,15.50
2023-03-19T23:19:41.654Z,15.50
2023-03-19T23:22:15.857Z,15.50
2023-03-19T23:24:44.912Z,15.50
2023-03-19T23:27:24.972Z,15.40
2023-03-19T23:29:53.959Z,15.40
2023-03-19T23:32:22.043Z,15.40
2023-03-19T23:34:59.528Z,15.40
2023-03-19T23:37:29.415Z,15.40
2023-03-19T23:39:57.869Z,15.40
2023-03-19T23:42:30.293Z,15.30
2023-03-19T23:45:02.486Z,15.30
2023-03-19T23:47:30.716Z,15.30
2023-03-19T23:49:58.054Z,15.20
2023-03-19T23:52:26.200Z,15.20
2023-03-19T23:54:53.228Z,15.20
2023-03-19T23:57:21.787Z,15.20
2023-03-19T23:59:52.032Z,15.20
